GW0065 Weather Reports


Display with metric or nautical units.
time (UTC)temp
F
wind
direction
speed
MPH
gust
MPH
rain 1hr
in
rain 24hr
in
rain mn
in
humidity
%
barometer
mb
20260502235035 75 30 2.0 4.0 0.00 0.00 0.00 19 1012.0
20260502234535 74 78 2.0 4.0 0.00 0.00 0.00 23 1012.0
20260502234035 74 72 2.0 3.0 0.00 0.00 0.00 20 1012.1
20260502233534 74 67 2.0 3.0 0.00 0.00 0.00 20 1012.1
20260502233034 75 60 2.0 3.0 0.00 0.00 0.00 18 1012.1
20260502232534 75 34 3.0 4.0 0.00 0.00 0.00 17 1012.1
20260502232033 74 46 3.0 5.0 0.00 0.00 0.00 15 1012.1
20260502231533 74 62 4.0 5.0 0.00 0.00 0.00 17 1012.2
20260502231033 74 70 3.0 5.0 0.00 0.00 0.00 18 1012.2
20260502230533 74 85 3.0 6.0 0.00 0.00 0.00 24 1012.2
20260502230300 74 65 3.0 6.0 0.00 0.00 0.00 18 1012.3
20260502225526 73 58 4.0 6.0 0.00 0.00 0.00 21 1012.3
20260502225021 74 49 4.0 8.0 0.00 0.00 0.00 21 1012.4
20260502224734 74 78 5.0 10.0 0.00 0.00 0.00 21 1012.5
20260502224009 75 57 6.0 10.0 0.00 0.00 0.00 18 1012.6
20260502223503 75 60 7.0 12.0 0.00 0.00 0.00 17 1012.6
20260502222957 75 60 8.0 12.0 0.00 0.00 0.00 16 1012.6
20260502222451 75 85 7.0 13.0 0.00 0.00 0.00 17 1012.8
20260502221948 76 84 5.0 13.0 0.00 0.00 0.00 16 1012.9
20260502221440 75 113 4.0 9.0 0.00 0.00 0.00 20 1013.0
20260502220933 76 74 5.0 10.0 0.00 0.00 0.00 18 1013.0
20260502220427 76 72 4.0 10.0 0.00 0.00 0.00 15 1013.0
20260502215920 76 84 4.0 7.0 0.00 0.00 0.00 18 1013.2
20260502215415 76 103 5.0 11.0 0.00 0.00 0.00 18 1013.3
20260502214908 77 48 5.0 11.0 0.00 0.00 0.00 15 1013.3
20260502214403 78 89 5.0 9.0 0.00 0.00 0.00 17 1013.4
20260502213857 78 102 4.0 9.0 0.00 0.00 0.00 16 1013.5
20260502213350 77 79 3.0 10.0 0.00 0.00 0.00 18 1013.5
20260502213108 76 146 4.0 10.0 0.00 0.00 0.00 17 1013.7
20260502212557 75 63 3.0 6.0 0.00 0.00 0.00 18 1013.7
20260502211833 76 60 3.0 6.0 0.00 0.00 0.00 18 1013.7
20260502211327 75 166 4.0 6.0 0.00 0.00 0.00 18 1013.8
20260502210820 75 59 6.0 13.0 0.00 0.00 0.00 19 1013.8
20260502210315 77 91 7.0 13.0 0.00 0.00 0.00 19 1014.0
20260502205809 77 192 6.0 15.0 0.00 0.00 0.00 20 1014.1
20260502205529 78 172 6.0 19.0 0.00 0.00 0.00 19 1014.1
20260502204757 78 106 4.0 18.0 0.00 0.00 0.00 20 1014.1
20260502204251 78 234 3.0 11.0 0.00 0.00 0.00 19 1014.1
20260502204009 78 242 4.0 11.0 0.00 0.00 0.00 19 1014.1
20260502203240 76 236 4.0 7.0 0.00 0.00 0.00 20 1014.2
20260502202733 77 100 4.0 12.0 0.00 0.00 0.00 20 1014.3
20260502202448 77 155 5.0 12.0 0.00 0.00 0.00 19 1014.5
20260502201721 78 166 4.0 10.0 0.00 0.00 0.00 18 1014.5
20260502201439 77 86 5.0 10.0 0.00 0.00 0.00 17 1014.5
20260502200931 77 173 5.0 12.0 0.00 0.00 0.00 17 1014.5
20260502200203 76 195 6.0 13.0 0.00 0.00 0.00 17 1014.6
20260502195657 76 178 7.0 13.0 0.00 0.00 0.00 17 1014.6
20260502195409 74 89 7.0 11.0 0.00 0.00 0.00 20 1014.6
20260502194645 74 52 6.0 11.0 0.00 0.00 0.00 20 1014.7
20260502194139 74 142 4.0 9.0 0.00 0.00 0.00 21 1014.7
20260502193851 72 36 3.0 5.0 0.00 0.00 0.00 25 1014.8
20260502193127 71 118 2.0 4.0 0.00 0.00 0.00 30 1014.9
20260502192620 70 94 2.0 3.0 0.00 0.00 0.00 32 1015.1
20260502192115 69 28 3.0 3.0 0.00 0.00 0.00 31 1015.1
20260502191609 69 27 3.0 5.0 0.00 0.00 0.00 31 1015.2
20260502191103 69 42 4.0 6.0 0.00 0.00 0.00 33 1015.2
20260502190557 67 70 5.0 7.0 0.00 0.00 0.00 37 1015.3
20260502190057 67 81 7.0 9.0 0.00 0.00 0.00 39 1015.4
20260502185557 68 52 8.0 10.0 0.00 0.00 0.00 33 1015.4
20260502185055 67 50 8.0 10.0 0.00 0.00 0.00 33 1015.5
20260502184552 67 56 8.0 9.0 0.00 0.00 0.00 35 1015.6
20260502184053 67 57 8.0 9.0 0.00 0.00 0.00 34 1015.6
20260502183552 66 56 7.0 9.0 0.00 0.00 0.00 36 1015.8
20260502183313 66 68 8.0 10.0 0.00 0.00 0.00 37 1015.8
20260502182813 66 54 8.0 10.0 0.00 0.00 0.00 35 1015.8
20260502182051 66 56 6.0 9.0 0.00 0.00 0.00 37 1015.9
20260502181551 65 61 7.0 11.0 0.00 0.00 0.00 42 1016.0
20260502181050 65 60 7.0 11.0 0.00 0.00 0.00 39 1016.1
20260502180550 65 62 7.0 10.0 0.00 0.00 0.00 38 1016.1
20260502164048 56 90 15.0 20.0 0.00 0.00 0.00 49 1016.8
20260502163548 56 92 16.0 23.0 0.00 0.00 0.00 50 1016.8
20260502163045 55 84 17.0 23.0 0.00 0.00 0.00 52 1016.8
20260502162545 55 79 17.0 21.0 0.00 0.00 0.00 52 1016.9
20260502162044 55 94 18.0 22.0 0.00 0.00 0.00 52 1016.9
20260502161545 55 78 18.0 24.0 0.00 0.00 0.00 51 1016.9
20260502161045 54 83 17.0 24.0 0.00 0.00 0.00 54 1016.9
20260502160545 54 81 18.0 24.0 0.00 0.00 0.00 54 1016.9
20260502160311 53 91 19.0 24.0 0.00 0.00 0.00 56 1016.9
20260502152305 51 83 21.0 27.0 0.00 0.00 0.00 56 1016.9
20260502151805 51 105 21.0 27.0 0.00 0.00 0.00 57 1016.7
20260502151040 51 86 21.0 26.0 0.00 0.00 0.00 56 1016.8
20260502150541 51 96 22.0 27.0 0.00 0.00 0.00 57 1016.8
20260502150300 51 88 22.0 27.0 0.00 0.00 0.00 57 1016.9
20260502130534 48 62 21.0 26.0 0.00 0.00 0.00 61 1016.5
20260502130252 49 94 22.0 28.0 0.00 0.00 0.00 60 1016.4
20260502123530 49 83 20.0 27.0 0.00 0.00 0.00 60 1016.4
20260502123030 49 91 20.0 27.0 0.00 0.00 0.00 61 1016.5
20260502122531 49 76 21.0 28.0 0.00 0.00 0.00 61 1016.4
20260502122031 49 81 21.0 29.0 0.00 0.00 0.00 60 1016.4
20260502121530 49 94 21.0 29.0 0.00 0.00 0.00 61 1016.3
20260502121029 49 80 22.0 29.0 0.00 0.00 0.00 62 1016.1
20260502120754 49 79 22.0 29.0 0.00 0.00 0.00 60 1016.4
20260502115518 49 89 21.0 27.0 0.00 0.00 0.00 60 1016.4
20260502115019 49 88 21.0 27.0 0.00 0.00 0.00 59 1016.5
20260502114518 49 86 20.0 27.0 0.00 0.00 0.00 58 1016.5
20260502114018 50 57 20.0 26.0 0.00 0.00 0.00 60 1016.5
20260502113518 50 56 21.0 26.0 0.00 0.00 0.00 58 1016.5
20260502113018 50 94 21.0 28.0 0.00 0.00 0.00 58 1016.4
20260502112735 50 94 20.0 28.0 0.00 0.00 0.00 58 1016.5
20260502112018 50 51 20.0 25.0 0.00 0.00 0.00 57 1016.5
20260502111741 50 92 19.0 25.0 0.00 0.00 0.00 58 1016.5
20260502111019 50 81 20.0 27.0 0.00 0.00 0.00 56 1016.6
20260502110518 50 70 20.0 31.0 0.00 0.00 0.00 57 1016.5
20260502110018 50 85 20.0 31.0 0.00 0.00 0.00 57 1016.6
20260502105737 50 86 20.0 28.0 0.00 0.00 0.00 56 1016.6
20260502105020 50 71 20.0 27.0 0.00 0.00 0.00 57 1016.6
20260502104519 50 77 20.0 29.0 0.00 0.00 0.00 58 1016.7
20260502104238 50 79 21.0 29.0 0.00 0.00 0.00 58 1016.5
20260502103512 50 86 21.0 28.0 0.00 0.00 0.00 59 1016.5
20260502103005 50 79 21.0 28.0 0.00 0.00 0.00 58 1016.4
20260502102458 50 64 20.0 28.0 0.00 0.00 0.00 59 1016.5
20260502101953 50 77 20.0 28.0 0.00 0.00 0.00 57 1016.5
20260502101707 50 77 20.0 26.0 0.00 0.00 0.00 59 1016.7
20260502100941 50 94 20.0 26.0 0.00 0.00 0.00 58 1016.7
20260502100654 50 72 20.0 26.0 0.00 0.00 0.00 57 1016.6
20260502100150 51 83 20.0 26.0 0.00 0.00 0.00 58 1016.6
20260502090829 52 81 18.0 24.0 0.00 0.00 0.00 55 1016.8
20260502090549 52 56 18.0 24.0 0.00 0.00 0.00 55 1016.8
20260502071111 54 86 18.0 23.0 0.00 0.00 0.00 50 1017.0
20260502070613 55 80 18.0 23.0 0.00 0.00 0.00 51 1017.0
20260502070331 55 72 17.0 23.0 0.00 0.00 0.00 49 1016.9
20260502065610 55 94 16.0 22.0 0.00 0.00 0.00 48 1016.9
20260502065110 55 89 16.0 22.0 0.00 0.00 0.00 48 1017.0
20260502064610 55 82 16.0 22.0 0.00 0.00 0.00 50 1016.9
20260502063610 56 79 16.0 21.0 0.00 0.00 0.00 49 1016.9
20260502063110 55 72 16.0 23.0 0.00 0.00 0.00 49 1016.9
20260502062611 55 57 17.0 23.0 0.00 0.00 0.00 50 1016.9
20260502062111 56 74 17.0 23.0 0.00 0.00 0.00 48 1016.8
20260502061610 56 76 17.0 22.0 0.00 0.00 0.00 48 1016.8
20260502061108 56 80 17.0 22.0 0.00 0.00 0.00 48 1016.7
20260502060608 56 89 17.0 22.0 0.00 0.00 0.00 51 1016.7
20260502060107 56 86 16.0 22.0 0.00 0.00 0.00 47 1016.7
20260502055606 56 77 16.0 22.0 0.00 0.00 0.00 48 1016.7
20260502055339 57 82 17.0 23.0 0.00 0.00 0.00 47 1016.8
20260502054602 57 87 16.0 23.0 0.00 0.00 0.00 47 1016.8
20260502054102 57 73 16.0 22.0 0.00 0.00 0.00 48 1016.8
20260502053826 57 79 16.0 22.0 0.00 0.00 0.00 46 1016.7
20260502052602 57 58 14.0 19.0 0.00 0.00 0.00 46 1016.8
20260502052102 57 58 14.0 21.0 0.00 0.00 0.00 46 1016.8
20260502051602 57 72 15.0 21.0 0.00 0.00 0.00 46 1016.8
20260502051101 58 71 13.0 19.0 0.00 0.00 0.00 44 1016.8
20260502050823 58 78 13.0 18.0 0.00 0.00 0.00 45 1016.7
20260502050057 58 75 12.0 17.0 0.00 0.00 0.00 44 1016.8
20260502045558 58 64 13.0 18.0 0.00 0.00 0.00 45 1016.8
20260502045058 58 69 13.0 18.0 0.00 0.00 0.00 44 1016.7
20260502044820 59 77 12.0 17.0 0.00 0.00 0.00 43 1016.7
20260502044058 59 77 11.0 17.0 0.00 0.00 0.00 40 1016.8
20260502043558 59 51 10.0 15.0 0.00 0.00 0.00 43 1016.8
20260502043058 59 65 9.0 13.0 0.00 0.00 0.00 43 1016.8
20260502042558 58 86 9.0 13.0 0.00 0.00 0.00 50 1016.8
20260502042058 59 51 8.0 13.0 0.00 0.00 0.00 46 1016.8
20260502041558 58 68 8.0 12.0 0.00 0.00 0.00 44 1016.7
20260502041058 58 58 8.0 11.0 0.00 0.00 0.00 50 1016.6
20260502040557 58 58 5.0 11.0 0.00 0.00 0.00 46 1016.7
20260502040057 59 77 3.0 6.0 0.00 0.00 0.00 45 1016.6
20260502035555 59 46 3.0 6.0 0.00 0.00 0.00 44 1016.6
20260502035056 58 148 3.0 6.0 0.00 0.00 0.00 44 1016.6
20260502034555 57 77 2.0 5.0 0.00 0.00 0.00 51 1016.5
20260502034054 57 35 2.0 5.0 0.00 0.00 0.00 53 1016.4
20260502033552 57 27 1.0 3.0 0.00 0.00 0.00 54 1016.3
20260502033310 56 111 2.0 4.0 0.00 0.00 0.00 52 1016.3
20260502032550 57 82 2.0 4.0 0.00 0.00 0.00 50 1016.3
20260502032049 57 75 3.0 4.0 0.00 0.00 0.00 49 1016.1
20260502031548 58 57 3.0 4.0 0.00 0.00 0.00 44 1016.0
20260502031041 58 77 3.0 5.0 0.00 0.00 0.00 42 1015.9
20260502030534 59 98 3.0 5.0 0.00 0.00 0.00 43 1015.9
20260502030028 60 88 2.0 5.0 0.00 0.00 0.00 39 1015.8
20260502025744 60 92 3.0 5.0 0.00 0.00 0.00 41 1015.9
20260502025019 61 58 2.0 5.0 0.00 0.00 0.00 39 1015.9
20260502024515 61 99 3.0 0.0 0.00 0.00 0.00 39 1015.8
20260502024143 62 111 2.0 4.0 0.00 0.00 0.00 40 1015.8
20260502023641 62 75 3.0 5.0 0.00 0.00 0.00 40 1015.8
20260502023141 62 113 3.0 5.0 0.00 0.00 0.00 39 1015.8
20260502022642 63 103 3.0 5.0 0.00 0.00 0.00 37 1015.8
20260502022142 63 73 2.0 4.0 0.00 0.00 0.00 37 1015.8
20260502021641 64 97 2.0 4.0 0.00 0.00 0.00 37 1015.8
20260502021400 65 101 3.0 4.0 0.00 0.00 0.00 32 1015.8
20260502020641 66 115 3.0 5.0 0.00 0.00 0.00 33 1015.8
20260502020135 67 135 3.0 5.0 0.00 0.00 0.00 29 1015.8
20260502015629 68 131 4.0 5.0 0.00 0.00 0.00 25 1015.8
20260502015123 69 146 4.0 5.0 0.00 0.00 0.00 24 1015.8
20260502014617 70 168 3.0 4.0 0.00 0.00 0.00 23 1015.8
20260502014111 71 154 3.0 3.0 0.00 0.00 0.00 22 1015.8
20260502013605 71 154 3.0 4.0 0.00 0.00 0.00 21 1015.8
20260502013058 71 162 2.0 4.0 0.00 0.00 0.00 21 1015.8
20260502012815 72 157 2.0 3.0 0.00 0.00 0.00 21 1015.9
20260502012047 73 152 1.0 3.0 0.00 0.00 0.00 20 1015.9
20260502011540 72 217 2.0 4.0 0.00 0.00 0.00 19 1015.9
20260502011034 72 258 3.0 5.0 0.00 0.00 0.00 18 1015.9
20260502010747 72 177 3.0 6.0 0.00 0.00 0.00 18 1016.0
20260502010243 72 169 3.0 8.0 0.00 0.00 0.00 18 1016.0
20260502005517 73 219 3.0 8.0 0.00 0.00 0.00 19 1016.0
20260502005011 74 218 2.0 5.0 0.00 0.00 0.00 18 1016.1
20260502004505 74 219 3.0 7.0 0.00 0.00 0.00 18 1016.0
20260502003959 73 200 5.0 10.0 0.00 0.00 0.00 19 1016.1
20260502003723 74 245 4.0 10.0 0.00 0.00 0.00 19 1016.1
20260502002947 74 236 3.0 8.0 0.00 0.00 0.00 19 1016.1
20260502002441 74 129 5.0 9.0 0.00 0.00 0.00 18 1016.3
20260502001935 74 196 4.0 9.0 0.00 0.00 0.00 18 1016.3
20260502001429 74 207 2.0 8.0 0.00 0.00 0.00 18 1016.3
20260502000923 74 250 2.0 5.0 0.00 0.00 0.00 18 1016.3
20260502000417 74 226 2.0 7.0 0.00 0.00 0.00 18 1016.3
20260501235911 74 223 3.0 7.0 0.00 0.00 0.00 18 1016.3
20260501235405 74 238 4.0 9.0 0.00 0.00 0.00 20 1016.3